sensor_id;sensor_type;location;lat;lon;timestamp;temperature;humidity
21582;DHT22;10952;50.836;4.348;2022-09-30T00:01:36;12.30;99.90
21582;DHT22;10952;50.836;4.348;2022-09-30T00:04:05;12.20;99.90
21582;DHT22;10952;50.836;4.348;2022-09-30T00:06:32;12.10;99.90
21582;DHT22;10952;50.836;4.348;2022-09-30T00:09:00;12.10;99.90
21582;DHT22;10952;50.836;4.348;2022-09-30T00:11:31;12.10;99.90
21582;DHT22;10952;50.836;4.348;2022-09-30T00:13:59;12.10;99.90
21582;DHT22;10952;50.836;4.348;2022-09-30T00:16:29;12.00;99.90
21582;DHT22;10952;50.836;4.348;2022-09-30T00:18:57;12.10;99.90
21582;DHT22;10952;50.836;4.348;2022-09-30T00:21:25;12.00;99.90
21582;DHT22;10952;50.836;4.348;2022-09-30T00:23:53;12.00;99.90
21582;DHT22;10952;50.836;4.348;2022-09-30T00:26:22;12.00;99.90
21582;DHT22;10952;50.836;4.348;2022-09-30T00:28:54;12.00;99.90
21582;DHT22;10952;50.836;4.348;2022-09-30T00:31:22;12.00;99.90
21582;DHT22;10952;50.836;4.348;2022-09-30T00:33:49;11.90;99.90
21582;DHT22;10952;50.836;4.348;2022-09-30T00:36:52;11.90;99.90
21582;DHT22;10952;50.836;4.348;2022-09-30T00:39:24;11.80;99.90
21582;DHT22;10952;50.836;4.348;2022-09-30T00:41:54;11.90;99.90
21582;DHT22;10952;50.836;4.348;2022-09-30T00:47:30;11.90;99.90
21582;DHT22;10952;50.836;4.348;2022-09-30T00:52:35;11.70;99.90
21582;DHT22;10952;50.836;4.348;2022-09-30T00:55:04;11.70;99.90
21582;DHT22;10952;50.836;4.348;2022-09-30T00:57:34;11.50;99.90
21582;DHT22;10952;50.836;4.348;2022-09-30T01:00:00;11.50;99.90
21582;DHT22;10952;50.836;4.348;2022-09-30T01:02:26;11.60;99.90
21582;DHT22;10952;50.836;4.348;2022-09-30T01:04:52;11.60;99.90
21582;DHT22;10952;50.836;4.348;2022-09-30T01:07:20;11.70;99.90
21582;DHT22;10952;50.836;4.348;2022-09-30T01:09:47;11.60;99.90
21582;DHT22;10952;50.836;4.348;2022-09-30T01:12:16;11.50;99.90
21582;DHT22;10952;50.836;4.348;2022-09-30T01:14:44;11.60;99.90
21582;DHT22;10952;50.836;4.348;2022-09-30T01:17:49;11.50;99.90
21582;DHT22;10952;50.836;4.348;2022-09-30T01:45:36;11.40;99.90
21582;DHT22;10952;50.836;4.348;2022-09-30T01:51:01;11.30;99.90
21582;DHT22;10952;50.836;4.348;2022-09-30T01:53:51;11.40;99.90
21582;DHT22;10952;50.836;4.348;2022-09-30T01:59:10;11.10;99.90
21582;DHT22;10952;50.836;4.348;2022-09-30T02:01:53;11.10;99.90
21582;DHT22;10952;50.836;4.348;2022-09-30T02:04:44;11.10;99.90
21582;DHT22;10952;50.836;4.348;2022-09-30T02:07:15;11.20;99.90
21582;DHT22;10952;50.836;4.348;2022-09-30T02:09:56;11.20;99.90
21582;DHT22;10952;50.836;4.348;2022-09-30T02:12:30;11.00;99.90
21582;DHT22;10952;50.836;4.348;2022-09-30T02:15:07;11.00;99.90
21582;DHT22;10952;50.836;4.348;2022-09-30T02:17:47;11.00;99.90
21582;DHT22;10952;50.836;4.348;2022-09-30T02:20:24;10.90;99.90
21582;DHT22;10952;50.836;4.348;2022-09-30T02:23:11;11.00;99.90
21582;DHT22;10952;50.836;4.348;2022-09-30T02:26:15;10.90;99.90
21582;DHT22;10952;50.836;4.348;2022-09-30T02:28:53;10.70;99.90
21582;DHT22;10952;50.836;4.348;2022-09-30T02:31:21;10.70;99.90
21582;DHT22;10952;50.836;4.348;2022-09-30T02:34:24;10.80;99.90
21582;DHT22;10952;50.836;4.348;2022-09-30T02:39:51;10.90;99.90
21582;DHT22;10952;50.836;4.348;2022-09-30T02:42:22;11.00;99.90
21582;DHT22;10952;50.836;4.348;2022-09-30T02:44:52;11.10;99.90
21582;DHT22;10952;50.836;4.348;2022-09-30T02:47:30;11.00;99.90
21582;DHT22;10952;50.836;4.348;2022-09-30T02:52:26;11.00;99.90
21582;DHT22;10952;50.836;4.348;2022-09-30T02:55:09;11.00;99.90
21582;DHT22;10952;50.836;4.348;2022-09-30T03:00:08;11.00;99.90
21582;DHT22;10952;50.836;4.348;2022-09-30T03:02:36;11.10;99.90
21582;DHT22;10952;50.836;4.348;2022-09-30T03:05:02;11.00;99.90
21582;DHT22;10952;50.836;4.348;2022-09-30T03:07:29;11.00;99.90
21582;DHT22;10952;50.836;4.348;2022-09-30T03:09:56;11.00;99.90
21582;DHT22;10952;50.836;4.348;2022-09-30T03:29:45;10.60;99.90
21582;DHT22;10952;50.836;4.348;2022-09-30T03:38:01;10.40;99.90
21582;DHT22;10952;50.836;4.348;2022-09-30T03:40:29;10.40;99.90
21582;DHT22;10952;50.836;4.348;2022-09-30T03:45:51;10.30;99.90
21582;DHT22;10952;50.836;4.348;2022-09-30T03:48:18;10.10;99.90
21582;DHT22;10952;50.836;4.348;2022-09-30T03:50:45;10.20;99.90
21582;DHT22;10952;50.836;4.348;2022-09-30T03:53:12;10.20;99.90
21582;DHT22;10952;50.836;4.348;2022-09-30T03:55:48;10.10;99.90
21582;DHT22;10952;50.836;4.348;2022-09-30T03:58:17;10.00;99.90
21582;DHT22;10952;50.836;4.348;2022-09-30T04:00:53;10.00;99.90
21582;DHT22;10952;50.836;4.348;2022-09-30T04:03:21;10.00;99.90
21582;DHT22;10952;50.836;4.348;2022-09-30T04:05:49;10.00;99.90
21582;DHT22;10952;50.836;4.348;2022-09-30T04:08:15;10.10;99.90
21582;DHT22;10952;50.836;4.348;2022-09-30T04:10:42;10.10;99.90
21582;DHT22;10952;50.836;4.348;2022-09-30T04:13:09;10.00;99.90
21582;DHT22;10952;50.836;4.348;2022-09-30T04:15:36;9.90;99.90
21582;DHT22;10952;50.836;4.348;2022-09-30T04:18:03;10.00;99.90
21582;DHT22;10952;50.836;4.348;2022-09-30T04:20:30;9.90;99.90
21582;DHT22;10952;50.836;4.348;2022-09-30T04:22:57;9.90;99.90
21582;DHT22;10952;50.836;4.348;2022-09-30T04:25:24;10.00;99.90
21582;DHT22;10952;50.836;4.348;2022-09-30T04:27:51;10.00;99.90
21582;DHT22;10952;50.836;4.348;2022-09-30T04:30:20;10.00;99.90
21582;DHT22;10952;50.836;4.348;2022-09-30T04:32:47;10.00;99.90
21582;DHT22;10952;50.836;4.348;2022-09-30T04:35:14;10.00;99.90
21582;DHT22;10952;50.836;4.348;2022-09-30T04:37:43;10.00;99.90
21582;DHT22;10952;50.836;4.348;2022-09-30T04:40:11;10.10;99.90
21582;DHT22;10952;50.836;4.348;2022-09-30T04:42:38;10.10;99.90
21582;DHT22;10952;50.836;4.348;2022-09-30T04:45:06;10.10;99.90
21582;DHT22;10952;50.836;4.348;2022-09-30T04:47:32;10.30;99.90
21582;DHT22;10952;50.836;4.348;2022-09-30T04:49:59;10.20;99.90
21582;DHT22;10952;50.836;4.348;2022-09-30T04:52:26;10.30;99.90
21582;DHT22;10952;50.836;4.348;2022-09-30T04:54:52;10.30;99.90
21582;DHT22;10952;50.836;4.348;2022-09-30T04:57:19;10.30;99.90
21582;DHT22;10952;50.836;4.348;2022-09-30T04:59:45;10.20;99.90
21582;DHT22;10952;50.836;4.348;2022-09-30T05:02:12;10.20;99.90
21582;DHT22;10952;50.836;4.348;2022-09-30T05:04:38;10.20;99.90
21582;DHT22;10952;50.836;4.348;2022-09-30T05:07:04;10.30;99.90
21582;DHT22;10952;50.836;4.348;2022-09-30T05:09:34;10.30;99.90
21582;DHT22;10952;50.836;4.348;2022-09-30T05:12:02;10.30;99.90
21582;DHT22;10952;50.836;4.348;2022-09-30T05:14:29;10.40;99.90
21582;DHT22;10952;50.836;4.348;2022-09-30T05:16:55;10.30;99.90
21582;DHT22;10952;50.836;4.348;2022-09-30T05:19:21;10.40;99.90
21582;DHT22;10952;50.836;4.348;2022-09-30T05:21:47;10.40;99.90
21582;DHT22;10952;50.836;4.348;2022-09-30T05:24:13;10.30;99.90
21582;DHT22;10952;50.836;4.348;2022-09-30T05:26:39;10.20;99.90
21582;DHT22;10952;50.836;4.348;2022-09-30T05:29:05;10.10;99.90
21582;DHT22;10952;50.836;4.348;2022-09-30T05:31:32;10.20;99.90
21582;DHT22;10952;50.836;4.348;2022-09-30T05:33:58;10.10;99.90
21582;DHT22;10952;50.836;4.348;2022-09-30T05:36:24;10.10;99.90
21582;DHT22;10952;50.836;4.348;2022-09-30T05:38:51;10.10;99.90
21582;DHT22;10952;50.836;4.348;2022-09-30T05:41:18;10.10;99.90
21582;DHT22;10952;50.836;4.348;2022-09-30T05:43:48;10.10;99.90
21582;DHT22;10952;50.836;4.348;2022-09-30T05:46:17;10.10;99.90
21582;DHT22;10952;50.836;4.348;2022-09-30T05:48:43;10.10;99.90
21582;DHT22;10952;50.836;4.348;2022-09-30T05:51:09;10.20;99.90
21582;DHT22;10952;50.836;4.348;2022-09-30T05:53:37;10.10;99.90
21582;DHT22;10952;50.836;4.348;2022-09-30T05:56:05;10.20;99.90
21582;DHT22;10952;50.836;4.348;2022-09-30T05:58:31;10.20;99.90
21582;DHT22;10952;50.836;4.348;2022-09-30T06:01:08;10.20;99.90
21582;DHT22;10952;50.836;4.348;2022-09-30T06:03:35;10.30;99.90
21582;DHT22;10952;50.836;4.348;2022-09-30T06:06:01;10.30;99.90
21582;DHT22;10952;50.836;4.348;2022-09-30T06:08:27;10.40;99.90
21582;DHT22;10952;50.836;4.348;2022-09-30T06:10:53;10.40;99.90
21582;DHT22;10952;50.836;4.348;2022-09-30T06:13:20;10.30;99.90
21582;DHT22;10952;50.836;4.348;2022-09-30T06:16:00;10.30;99.90
21582;DHT22;10952;50.836;4.348;2022-09-30T06:18:27;10.30;99.90
21582;DHT22;10952;50.836;4.348;2022-09-30T06:20:58;10.30;99.90
21582;DHT22;10952;50.836;4.348;2022-09-30T06:23:25;10.30;99.90
21582;DHT22;10952;50.836;4.348;2022-09-30T06:25:52;10.30;99.90
21582;DHT22;10952;50.836;4.348;2022-09-30T06:28:20;10.30;99.90
21582;DHT22;10952;50.836;4.348;2022-09-30T06:30:46;10.40;99.90
21582;DHT22;10952;50.836;4.348;2022-09-30T06:33:13;10.30;99.90
21582;DHT22;10952;50.836;4.348;2022-09-30T06:35:40;10.30;99.90
21582;DHT22;10952;50.836;4.348;2022-09-30T06:38:08;10.30;99.90
21582;DHT22;10952;50.836;4.348;2022-09-30T06:40:34;10.30;99.90
21582;DHT22;10952;50.836;4.348;2022-09-30T06:43:01;10.20;99.90
21582;DHT22;10952;50.836;4.348;2022-09-30T06:45:28;10.30;99.90
21582;DHT22;10952;50.836;4.348;2022-09-30T06:47:58;10.30;99.90
21582;DHT22;10952;50.836;4.348;2022-09-30T06:50:24;10.20;99.90
21582;DHT22;10952;50.836;4.348;2022-09-30T06:52:50;10.40;99.90
21582;DHT22;10952;50.836;4.348;2022-09-30T06:55:17;10.30;99.90
21582;DHT22;10952;50.836;4.348;2022-09-30T06:57:44;10.30;99.90
21582;DHT22;10952;50.836;4.348;2022-09-30T07:00:13;10.40;99.90
21582;DHT22;10952;50.836;4.348;2022-09-30T07:02:42;10.50;99.90
21582;DHT22;10952;50.836;4.348;2022-09-30T07:05:09;10.60;99.90
21582;DHT22;10952;50.836;4.348;2022-09-30T07:07:38;10.50;99.90
21582;DHT22;10952;50.836;4.348;2022-09-30T07:10:04;10.60;99.90
21582;DHT22;10952;50.836;4.348;2022-09-30T07:12:30;10.50;99.90
21582;DHT22;10952;50.836;4.348;2022-09-30T07:14:58;10.60;99.90
21582;DHT22;10952;50.836;4.348;2022-09-30T07:17:25;10.50;99.90
21582;DHT22;10952;50.836;4.348;2022-09-30T07:19:53;10.60;99.90
21582;DHT22;10952;50.836;4.348;2022-09-30T07:22:20;10.60;99.90
21582;DHT22;10952;50.836;4.348;2022-09-30T07:24:57;10.70;99.90
21582;DHT22;10952;50.836;4.348;2022-09-30T07:27:27;10.80;99.90
21582;DHT22;10952;50.836;4.348;2022-09-30T07:29:53;10.90;99.90
21582;DHT22;10952;50.836;4.348;2022-09-30T07:32:22;10.90;99.90
21582;DHT22;10952;50.836;4.348;2022-09-30T07:34:49;11.00;99.90
21582;DHT22;10952;50.836;4.348;2022-09-30T07:37:17;11.10;99.90
21582;DHT22;10952;50.836;4.348;2022-09-30T07:39:45;11.10;99.90
21582;DHT22;10952;50.836;4.348;2022-09-30T07:42:14;11.20;99.90
21582;DHT22;10952;50.836;4.348;2022-09-30T07:44:41;11.20;99.90
21582;DHT22;10952;50.836;4.348;2022-09-30T07:47:10;11.20;99.90
21582;DHT22;10952;50.836;4.348;2022-09-30T07:49:37;11.20;99.90
21582;DHT22;10952;50.836;4.348;2022-09-30T07:52:04;11.30;99.90
21582;DHT22;10952;50.836;4.348;2022-09-30T07:54:32;11.40;99.90
21582;DHT22;10952;50.836;4.348;2022-09-30T07:57:00;11.30;99.90
21582;DHT22;10952;50.836;4.348;2022-09-30T07:59:28;11.40;99.90
21582;DHT22;10952;50.836;4.348;2022-09-30T08:01:54;11.50;99.90
21582;DHT22;10952;50.836;4.348;2022-09-30T08:04:23;11.60;99.90
21582;DHT22;10952;50.836;4.348;2022-09-30T08:06:51;11.70;99.90
21582;DHT22;10952;50.836;4.348;2022-09-30T08:09:20;11.80;99.90
21582;DHT22;10952;50.836;4.348;2022-09-30T08:11:47;11.90;99.90
21582;DHT22;10952;50.836;4.348;2022-09-30T08:14:18;11.90;99.90
21582;DHT22;10952;50.836;4.348;2022-09-30T08:16:45;11.90;99.90
21582;DHT22;10952;50.836;4.348;2022-09-30T08:19:17;12.00;99.90
21582;DHT22;10952;50.836;4.348;2022-09-30T08:21:44;12.10;99.90
21582;DHT22;10952;50.836;4.348;2022-09-30T08:24:11;12.10;99.90
21582;DHT22;10952;50.836;4.348;2022-09-30T08:26:37;12.20;99.90
21582;DHT22;10952;50.836;4.348;2022-09-30T08:29:03;12.30;99.90
21582;DHT22;10952;50.836;4.348;2022-09-30T08:31:29;12.30;99.90
21582;DHT22;10952;50.836;4.348;2022-09-30T08:33:58;12.40;99.90
21582;DHT22;10952;50.836;4.348;2022-09-30T08:36:26;12.50;99.90
21582;DHT22;10952;50.836;4.348;2022-09-30T08:38:56;12.60;99.90
21582;DHT22;10952;50.836;4.348;2022-09-30T08:52:27;12.90;99.90
21582;DHT22;10952;50.836;4.348;2022-09-30T08:54:56;13.10;99.90
21582;DHT22;10952;50.836;4.348;2022-09-30T08:57:30;13.20;99.90
21582;DHT22;10952;50.836;4.348;2022-09-30T09:00:05;13.20;99.90
21582;DHT22;10952;50.836;4.348;2022-09-30T09:02:57;13.30;99.90
21582;DHT22;10952;50.836;4.348;2022-09-30T09:08:38;13.50;99.90
21582;DHT22;10952;50.836;4.348;2022-09-30T09:14:01;13.50;99.90
21582;DHT22;10952;50.836;4.348;2022-09-30T09:19:41;13.80;99.90
21582;DHT22;10952;50.836;4.348;2022-09-30T09:22:09;13.90;99.90
21582;DHT22;10952;50.836;4.348;2022-09-30T09:27:25;14.00;99.90
21582;DHT22;10952;50.836;4.348;2022-09-30T09:32:34;14.10;99.90
21582;DHT22;10952;50.836;4.348;2022-09-30T09:35:11;14.20;99.90
21582;DHT22;10952;50.836;4.348;2022-09-30T09:37:54;14.30;99.90
21582;DHT22;10952;50.836;4.348;2022-09-30T09:43:50;14.40;99.90
21582;DHT22;10952;50.836;4.348;2022-09-30T09:46:58;14.50;99.90
21582;DHT22;10952;50.836;4.348;2022-09-30T09:49:31;14.70;99.90
21582;DHT22;10952;50.836;4.348;2022-09-30T09:54:44;14.80;99.90
21582;DHT22;10952;50.836;4.348;2022-09-30T09:57:17;14.80;99.90
21582;DHT22;10952;50.836;4.348;2022-09-30T10:02:28;15.20;99.90
21582;DHT22;10952;50.836;4.348;2022-09-30T10:04:55;15.30;99.90
21582;DHT22;10952;50.836;4.348;2022-09-30T10:07:32;15.40;99.90
21582;DHT22;10952;50.836;4.348;2022-09-30T10:12:34;15.50;99.90
21582;DHT22;10952;50.836;4.348;2022-09-30T10:15:03;15.60;99.90
21582;DHT22;10952;50.836;4.348;2022-09-30T10:17:34;15.80;99.90
21582;DHT22;10952;50.836;4.348;2022-09-30T10:20:22;15.90;99.90
21582;DHT22;10952;50.836;4.348;2022-09-30T10:22:58;16.10;99.90
21582;DHT22;10952;50.836;4.348;2022-09-30T10:25:24;16.30;99.90
21582;DHT22;10952;50.836;4.348;2022-09-30T10:27:57;16.40;99.90
21582;DHT22;10952;50.836;4.348;2022-09-30T10:30:43;16.50;99.90
21582;DHT22;10952;50.836;4.348;2022-09-30T10:35:59;16.70;99.90
21582;DHT22;10952;50.836;4.348;2022-09-30T10:38:29;16.70;99.90
21582;DHT22;10952;50.836;4.348;2022-09-30T10:40:58;16.70;99.90
21582;DHT22;10952;50.836;4.348;2022-09-30T10:43:31;17.00;99.90
21582;DHT22;10952;50.836;4.348;2022-09-30T10:45:58;18.00;99.90
21582;DHT22;10952;50.836;4.348;2022-09-30T10:48:33;19.30;99.90
21582;DHT22;10952;50.836;4.348;2022-09-30T10:51:00;20.50;99.90
21582;DHT22;10952;50.836;4.348;2022-09-30T10:53:33;21.80;99.90
21582;DHT22;10952;50.836;4.348;2022-09-30T10:56:01;23.10;99.90
21582;DHT22;10952;50.836;4.348;2022-09-30T10:58:44;23.80;99.90
21582;DHT22;10952;50.836;4.348;2022-09-30T11:04:04;24.50;99.90
21582;DHT22;10952;50.836;4.348;2022-09-30T11:06:39;25.00;99.90
21582;DHT22;10952;50.836;4.348;2022-09-30T11:09:57;26.00;99.90
21582;DHT22;10952;50.836;4.348;2022-09-30T11:12:03;25.60;99.40
21582;DHT22;10952;50.836;4.348;2022-09-30T11:15:02;25.00;99.80
21582;DHT22;10952;50.836;4.348;2022-09-30T11:17:58;25.40;99.30
21582;DHT22;10952;50.836;4.348;2022-09-30T11:20:42;25.10;97.80
21582;DHT22;10952;50.836;4.348;2022-09-30T11:26:38;25.30;98.10
21582;DHT22;10952;50.836;4.348;2022-09-30T11:29:17;25.80;96.70
21582;DHT22;10952;50.836;4.348;2022-09-30T11:40:37;23.20;98.20
21582;DHT22;10952;50.836;4.348;2022-09-30T11:45:52;22.90;99.50
21582;DHT22;10952;50.836;4.348;2022-09-30T11:51:18;23.30;99.30
21582;DHT22;10952;50.836;4.348;2022-09-30T11:59:27;22.10;99.90
21582;DHT22;10952;50.836;4.348;2022-09-30T12:02:00;21.20;99.90
21582;DHT22;10952;50.836;4.348;2022-09-30T12:04:41;20.60;99.90
21582;DHT22;10952;50.836;4.348;2022-09-30T12:07:18;20.30;99.90
21582;DHT22;10952;50.836;4.348;2022-09-30T12:09:51;20.10;99.90
21582;DHT22;10952;50.836;4.348;2022-09-30T12:12:18;20.00;99.90
21582;DHT22;10952;50.836;4.348;2022-09-30T12:14:52;20.10;99.90
21582;DHT22;10952;50.836;4.348;2022-09-30T12:17:29;20.60;99.90
21582;DHT22;10952;50.836;4.348;2022-09-30T12:26:00;21.70;99.90
21582;DHT22;10952;50.836;4.348;2022-09-30T12:34:45;20.40;99.90
21582;DHT22;10952;50.836;4.348;2022-09-30T12:43:36;19.90;99.90
21582;DHT22;10952;50.836;4.348;2022-09-30T12:48:53;19.90;99.90
21582;DHT22;10952;50.836;4.348;2022-09-30T12:51:31;20.10;99.90
21582;DHT22;10952;50.836;4.348;2022-09-30T12:56:45;19.90;99.90
21582;DHT22;10952;50.836;4.348;2022-09-30T12:59:15;19.60;99.90
21582;DHT22;10952;50.836;4.348;2022-09-30T13:01:47;19.70;99.90
21582;DHT22;10952;50.836;4.348;2022-09-30T13:04:39;19.90;99.90
21582;DHT22;10952;50.836;4.348;2022-09-30T13:07:11;20.00;99.90
21582;DHT22;10952;50.836;4.348;2022-09-30T13:12:28;19.40;99.90
21582;DHT22;10952;50.836;4.348;2022-09-30T13:15:44;19.10;99.90
21582;DHT22;10952;50.836;4.348;2022-09-30T13:23:56;19.50;99.90
21582;DHT22;10952;50.836;4.348;2022-09-30T13:28:51;19.60;99.90
21582;DHT22;10952;50.836;4.348;2022-09-30T13:31:22;19.50;99.90
21582;DHT22;10952;50.836;4.348;2022-09-30T13:34:09;19.30;99.90
21582;DHT22;10952;50.836;4.348;2022-09-30T13:37:22;19.10;99.90
21582;DHT22;10952;50.836;4.348;2022-09-30T13:39:51;19.00;99.90
21582;DHT22;10952;50.836;4.348;2022-09-30T13:45:26;19.20;99.90
21582;DHT22;10952;50.836;4.348;2022-09-30T13:50:49;19.20;99.90
21582;DHT22;10952;50.836;4.348;2022-09-30T13:53:29;19.40;99.90
21582;DHT22;10952;50.836;4.348;2022-09-30T13:55:58;19.40;99.90
21582;DHT22;10952;50.836;4.348;2022-09-30T14:04:34;19.40;99.90
21582;DHT22;10952;50.836;4.348;2022-09-30T14:15:55;19.30;99.90
21582;DHT22;10952;50.836;4.348;2022-09-30T14:21:02;19.40;99.90
21582;DHT22;10952;50.836;4.348;2022-09-30T14:23:30;19.40;99.90
21582;DHT22;10952;50.836;4.348;2022-09-30T14:26:16;19.50;99.90
21582;DHT22;10952;50.836;4.348;2022-09-30T14:31:19;19.70;99.90
21582;DHT22;10952;50.836;4.348;2022-09-30T14:33:47;19.60;99.90
21582;DHT22;10952;50.836;4.348;2022-09-30T14:36:17;19.40;99.90
21582;DHT22;10952;50.836;4.348;2022-09-30T14:38:46;19.30;99.90
21582;DHT22;10952;50.836;4.348;2022-09-30T14:41:22;19.20;99.90
21582;DHT22;10952;50.836;4.348;2022-09-30T14:43:59;18.90;99.90
21582;DHT22;10952;50.836;4.348;2022-09-30T14:46:34;18.90;99.90
21582;DHT22;10952;50.836;4.348;2022-09-30T14:49:05;19.10;99.90
21582;DHT22;10952;50.836;4.348;2022-09-30T14:51:40;19.20;99.90
21582;DHT22;10952;50.836;4.348;2022-09-30T14:54:24;19.30;99.90
21582;DHT22;10952;50.836;4.348;2022-09-30T14:56:54;19.40;99.90
21582;DHT22;10952;50.836;4.348;2022-09-30T14:59:26;19.40;99.90
21582;DHT22;10952;50.836;4.348;2022-09-30T15:01:57;19.50;99.90
21582;DHT22;10952;50.836;4.348;2022-09-30T15:04:30;19.60;99.90
21582;DHT22;10952;50.836;4.348;2022-09-30T15:06:58;19.50;99.90
21582;DHT22;10952;50.836;4.348;2022-09-30T15:09:40;19.40;99.90
21582;DHT22;10952;50.836;4.348;2022-09-30T15:12:14;19.20;99.90
21582;DHT22;10952;50.836;4.348;2022-09-30T15:17:27;19.00;99.90
21582;DHT22;10952;50.836;4.348;2022-09-30T15:19:55;19.00;99.90
21582;DHT22;10952;50.836;4.348;2022-09-30T15:22:23;18.80;99.90
21582;DHT22;10952;50.836;4.348;2022-09-30T15:24:52;18.60;99.90
21582;DHT22;10952;50.836;4.348;2022-09-30T15:27:31;18.60;99.90
21582;DHT22;10952;50.836;4.348;2022-09-30T15:30:23;18.60;99.90
21582;DHT22;10952;50.836;4.348;2022-09-30T15:32:48;18.70;99.90
21582;DHT22;10952;50.836;4.348;2022-09-30T15:35:21;18.70;99.90
21582;DHT22;10952;50.836;4.348;2022-09-30T15:37:50;18.70;99.90
21582;DHT22;10952;50.836;4.348;2022-09-30T15:40:22;18.40;99.90
21582;DHT22;10952;50.836;4.348;2022-09-30T15:43:12;18.40;99.90
21582;DHT22;10952;50.836;4.348;2022-09-30T15:45:44;18.30;99.90
21582;DHT22;10952;50.836;4.348;2022-09-30T15:53:23;18.20;99.90
21582;DHT22;10952;50.836;4.348;2022-09-30T15:55:52;18.20;99.90
21582;DHT22;10952;50.836;4.348;2022-09-30T15:58:30;18.10;99.90
21582;DHT22;10952;50.836;4.348;2022-09-30T16:03:36;18.10;99.90
21582;DHT22;10952;50.836;4.348;2022-09-30T16:06:07;18.00;99.90
21582;DHT22;10952;50.836;4.348;2022-09-30T16:08:43;18.00;99.90
21582;DHT22;10952;50.836;4.348;2022-09-30T16:13:53;17.80;99.90
21582;DHT22;10952;50.836;4.348;2022-09-30T16:16:25;17.60;99.90
21582;DHT22;10952;50.836;4.348;2022-09-30T16:18:56;17.60;99.90
21582;DHT22;10952;50.836;4.348;2022-09-30T16:21:43;17.60;99.90
21582;DHT22;10952;50.836;4.348;2022-09-30T16:26:49;17.50;99.90
21582;DHT22;10952;50.836;4.348;2022-09-30T16:29:15;17.40;99.90
21582;DHT22;10952;50.836;4.348;2022-09-30T16:31:44;17.40;99.90
21582;DHT22;10952;50.836;4.348;2022-09-30T16:34:21;17.20;99.90
21582;DHT22;10952;50.836;4.348;2022-09-30T16:36:48;17.30;99.90
21582;DHT22;10952;50.836;4.348;2022-09-30T16:39:15;17.30;99.90
21582;DHT22;10952;50.836;4.348;2022-09-30T16:41:42;17.20;99.90
21582;DHT22;10952;50.836;4.348;2022-09-30T16:44:08;17.10;99.90
21582;DHT22;10952;50.836;4.348;2022-09-30T16:46:34;17.20;99.90
21582;DHT22;10952;50.836;4.348;2022-09-30T16:49:18;17.10;99.90
21582;DHT22;10952;50.836;4.348;2022-09-30T16:51:44;17.10;99.90
21582;DHT22;10952;50.836;4.348;2022-09-30T16:54:11;17.00;99.90
21582;DHT22;10952;50.836;4.348;2022-09-30T16:56:37;16.90;99.90
21582;DHT22;10952;50.836;4.348;2022-09-30T16:59:08;16.90;99.90
21582;DHT22;10952;50.836;4.348;2022-09-30T17:01:37;16.90;99.90
21582;DHT22;10952;50.836;4.348;2022-09-30T17:04:04;17.00;99.90
21582;DHT22;10952;50.836;4.348;2022-09-30T17:06:31;17.00;99.90
21582;DHT22;10952;50.836;4.348;2022-09-30T17:08:58;17.00;99.90
21582;DHT22;10952;50.836;4.348;2022-09-30T17:11:29;16.90;99.90
21582;DHT22;10952;50.836;4.348;2022-09-30T17:14:01;16.90;99.90
21582;DHT22;10952;50.836;4.348;2022-09-30T17:16:27;16.80;99.90
21582;DHT22;10952;50.836;4.348;2022-09-30T17:18:52;16.70;99.90
21582;DHT22;10952;50.836;4.348;2022-09-30T17:21:19;16.70;99.90
21582;DHT22;10952;50.836;4.348;2022-09-30T17:23:46;16.70;99.90
21582;DHT22;10952;50.836;4.348;2022-09-30T17:26:12;16.70;99.90
21582;DHT22;10952;50.836;4.348;2022-09-30T17:28:39;16.60;99.90
21582;DHT22;10952;50.836;4.348;2022-09-30T17:31:09;16.70;99.90
21582;DHT22;10952;50.836;4.348;2022-09-30T17:33:37;16.60;99.90
21582;DHT22;10952;50.836;4.348;2022-09-30T17:36:05;16.50;99.90
21582;DHT22;10952;50.836;4.348;2022-09-30T17:38:33;16.50;99.90
21582;DHT22;10952;50.836;4.348;2022-09-30T17:40:59;16.60;99.90
21582;DHT22;10952;50.836;4.348;2022-09-30T17:43:45;16.50;99.90
21582;DHT22;10952;50.836;4.348;2022-09-30T17:46:15;16.30;99.90
21582;DHT22;10952;50.836;4.348;2022-09-30T17:48:48;16.30;99.90
21582;DHT22;10952;50.836;4.348;2022-09-30T17:51:15;16.20;99.90
21582;DHT22;10952;50.836;4.348;2022-09-30T17:53:42;16.20;99.90
21582;DHT22;10952;50.836;4.348;2022-09-30T17:56:19;16.20;99.90
21582;DHT22;10952;50.836;4.348;2022-09-30T17:58:50;16.20;99.90
21582;DHT22;10952;50.836;4.348;2022-09-30T18:01:19;16.10;99.90
21582;DHT22;10952;50.836;4.348;2022-09-30T18:03:46;16.10;99.90
21582;DHT22;10952;50.836;4.348;2022-09-30T18:06:12;16.10;99.90
21582;DHT22;10952;50.836;4.348;2022-09-30T18:08:41;16.10;99.90
21582;DHT22;10952;50.836;4.348;2022-09-30T18:11:07;16.10;99.90
21582;DHT22;10952;50.836;4.348;2022-09-30T18:13:34;16.10;99.90
21582;DHT22;10952;50.836;4.348;2022-09-30T18:16:04;16.10;99.90
21582;DHT22;10952;50.836;4.348;2022-09-30T18:18:33;16.10;99.90
21582;DHT22;10952;50.836;4.348;2022-09-30T18:21:00;16.10;99.90
21582;DHT22;10952;50.836;4.348;2022-09-30T18:23:26;16.10;99.90
21582;DHT22;10952;50.836;4.348;2022-09-30T18:25:52;16.00;99.90
21582;DHT22;10952;50.836;4.348;2022-09-30T18:28:20;16.00;99.90
21582;DHT22;10952;50.836;4.348;2022-09-30T18:30:47;16.10;99.90
21582;DHT22;10952;50.836;4.348;2022-09-30T18:33:13;16.00;99.90
21582;DHT22;10952;50.836;4.348;2022-09-30T18:35:43;16.10;99.90
21582;DHT22;10952;50.836;4.348;2022-09-30T18:38:09;16.10;99.90
21582;DHT22;10952;50.836;4.348;2022-09-30T18:40:40;16.00;99.90
21582;DHT22;10952;50.836;4.348;2022-09-30T18:43:06;16.00;99.90
21582;DHT22;10952;50.836;4.348;2022-09-30T18:45:33;15.90;99.90
21582;DHT22;10952;50.836;4.348;2022-09-30T18:48:01;16.00;99.90
21582;DHT22;10952;50.836;4.348;2022-09-30T18:50:28;16.00;99.90
21582;DHT22;10952;50.836;4.348;2022-09-30T18:52:54;16.00;99.90
21582;DHT22;10952;50.836;4.348;2022-09-30T18:55:21;16.00;99.90
21582;DHT22;10952;50.836;4.348;2022-09-30T18:57:47;16.10;99.90
21582;DHT22;10952;50.836;4.348;2022-09-30T19:00:13;16.00;99.90
21582;DHT22;10952;50.836;4.348;2022-09-30T19:02:42;16.00;99.90
21582;DHT22;10952;50.836;4.348;2022-09-30T19:05:12;16.00;99.90
21582;DHT22;10952;50.836;4.348;2022-09-30T19:07:38;16.00;99.90
21582;DHT22;10952;50.836;4.348;2022-09-30T19:10:05;15.90;99.90
21582;DHT22;10952;50.836;4.348;2022-09-30T19:12:34;15.90;99.90
21582;DHT22;10952;50.836;4.348;2022-09-30T19:15:04;15.90;99.90
21582;DHT22;10952;50.836;4.348;2022-09-30T19:17:30;16.00;99.90
21582;DHT22;10952;50.836;4.348;2022-09-30T19:19:58;16.00;99.90
21582;DHT22;10952;50.836;4.348;2022-09-30T19:22:26;15.90;99.90
21582;DHT22;10952;50.836;4.348;2022-09-30T19:24:53;15.80;99.90
21582;DHT22;10952;50.836;4.348;2022-09-30T19:27:19;15.80;99.90